KACY/ACY METAR and TAF weather

Enter ICAO airport designator
Station Type Date Time Source
KACY METAR 2019/08/19 21:54 UTC NOAA

KACY 192154Z 20004KT 10SM SCT100 32/20 A2998 RMK AO2 SLP150 T03220200


Station Type Date Time Source
KACY Decoded METAR 2019/08/19 21:54 UTC NOAA

ATLANTIC CITY INTERNATIONAL, NJ, United States (KACY) 39-28N 74-35W 35M
Aug 19, 2019 - 05:54 PM EDT / 2019.08.19 2154 UTC
Wind: from the SSW (200 degrees) at 5 MPH (4 KT):0
Visibility: 10 mile(s):0
Sky conditions: partly cloudy
Temperature: 90.0 F (32.2 C)
Dew Point: 68.0 F (20.0 C)
Relative Humidity: 48%
Pressure (altimeter): 29.98 in. Hg (1015 hPa)
ob: KACY 192154Z 20004KT 10SM SCT100 32/20 A2998 RMK AO2 SLP150 T03220200
cycle: 22

Station Type Date Time Source
KACY TAF 2019/08/19 21:55 UTC NOAA

TAF
AMD KACY 192052Z 1921/2018 19012G20KT P6SM VCTS SCT040CB
TEMPO 1921/1923 3SM TSRA BKN040CB
FM200000 18005KT P6SM SCT080
FM200200 VRB03KT P6SM SCT100
TEMPO 2008/2012 4SM BR SCT020
FM201200 05005KT P6SM FEW035 SCT150
FM201500 08007KT P6SM SCT040 BKN150

Example: see airport list